Flight Briefing for CPX203

Departure Arrival
Miami International Airport (KMIA)
Click to view FAA NOTAMS
Chicago/Rockford International Airport (KRFD)
Click to view FAA NOTAMS
Departure Time Arrival Time
N/A N/A
Aircraft Distance
B767-300BDSF 1139nm
Departure METAR Arrival METAR
KMIA 192253Z 10011KT 10SM SCT027 26/21 A3013 RMK AO2 SLP202 T02560206 KRFD 192254Z 06005KT 10SM FEW160 OVC250 M03/M10 A3048 RMK AO2 SLP336 T10331100
Suggested Route
WINCO2 WINCO J73 LAL CTY J91 ATL VARNM GLAZR Q118 HEVAN Q118 MZZ JOT


View recent IFR Routes data
Notes



Charts and Procedures

Charts for KMIA
No chart available
Charts for KRFD
No chart available

Ventusky Weather




{"cat":null,"equip":null,"transponder":null,"pbn":"PBN\/","maxpax":null,"oew":"0.0","mzfw":"0.0","mtow":"0.0","mlw":"0.0","maxfuel":"0.0"} DEVELOPMENTAL TEST USE ONLY